createdAt,value
2018-07-03T00:00:53.282Z,16.20
2018-07-03T00:03:23.206Z,16.30
2018-07-03T00:05:52.349Z,16.20
2018-07-03T00:08:21.494Z,16.20
2018-07-03T00:10:50.638Z,16.20
2018-07-03T00:13:19.783Z,16.20
2018-07-03T00:15:48.904Z,16.20
2018-07-03T00:18:18.085Z,16.20
2018-07-03T00:20:47.316Z,16.10
2018-07-03T00:23:16.497Z,16.10
2018-07-03T00:25:45.665Z,16.20
2018-07-03T00:28:14.793Z,16.20
2018-07-03T00:30:43.925Z,16.10
2018-07-03T00:33:13.076Z,16.10
2018-07-03T00:35:42.257Z,16.10
2018-07-03T00:40:40.288Z,16.00
2018-07-03T00:43:09.441Z,16.00
2018-07-03T00:45:38.637Z,15.90
2018-07-03T00:48:07.769Z,15.90
2018-07-03T00:50:36.973Z,15.80
2018-07-03T00:53:06.171Z,15.80
2018-07-03T00:55:35.362Z,15.70
2018-07-03T00:58:04.671Z,15.70
2018-07-03T01:00:35.381Z,15.80
2018-07-03T01:03:05.162Z,15.70
2018-07-03T01:05:34.589Z,15.60
2018-07-03T01:08:03.741Z,15.60
2018-07-03T01:10:32.870Z,15.60
2018-07-03T01:13:02.087Z,15.60
2018-07-03T01:15:31.228Z,15.50
2018-07-03T01:18:00.378Z,15.50
2018-07-03T01:20:29.540Z,15.50
2018-07-03T01:22:58.652Z,15.40
2018-07-03T01:25:27.788Z,15.40
2018-07-03T01:27:56.937Z,15.30
2018-07-03T01:30:26.175Z,15.40
2018-07-03T01:32:55.274Z,15.30
2018-07-03T01:35:24.409Z,15.20
2018-07-03T01:37:53.708Z,15.20
2018-07-03T01:40:22.809Z,15.20
2018-07-03T01:42:51.948Z,15.10
2018-07-03T01:45:21.049Z,15.10
2018-07-03T01:47:50.314Z,15.10
2018-07-03T01:50:19.500Z,15.10
2018-07-03T01:52:48.626Z,15.10
2018-07-03T01:55:17.796Z,15.00
2018-07-03T01:57:46.943Z,15.00
2018-07-03T02:00:16.090Z,15.00
2018-07-03T02:02:45.282Z,15.00
2018-07-03T02:05:14.431Z,15.00
2018-07-03T02:07:43.622Z,15.00
2018-07-03T02:10:12.722Z,15.00
2018-07-03T02:12:41.960Z,14.90
2018-07-03T02:15:11.093Z,14.90
2018-07-03T02:17:40.282Z,14.80
2018-07-03T02:20:09.421Z,14.80
2018-07-03T02:22:38.595Z,14.70
2018-07-03T02:25:07.709Z,14.70
2018-07-03T02:27:36.809Z,14.70
2018-07-03T02:30:06.465Z,14.60
2018-07-03T02:32:35.650Z,14.60
2018-07-03T02:35:04.984Z,14.70
2018-07-03T02:37:34.150Z,14.60
2018-07-03T02:40:03.316Z,14.70
2018-07-03T02:42:32.511Z,14.70
2018-07-03T02:45:01.697Z,14.60
2018-07-03T02:47:30.827Z,14.60
2018-07-03T02:49:59.971Z,14.60
2018-07-03T02:52:29.188Z,14.60
2018-07-03T02:54:58.313Z,14.60
2018-07-03T02:57:27.481Z,14.60
2018-07-03T02:59:56.686Z,14.50
2018-07-03T03:02:25.874Z,14.50
2018-07-03T03:04:55.074Z,14.50
2018-07-03T03:07:24.990Z,14.50
2018-07-03T03:09:54.133Z,14.50
2018-07-03T03:12:23.224Z,14.40
2018-07-03T03:14:52.399Z,14.40
2018-07-03T03:17:21.556Z,14.40
2018-07-03T03:19:50.735Z,14.50
2018-07-03T03:22:19.919Z,14.50
2018-07-03T03:24:48.980Z,14.50
2018-07-03T03:27:18.111Z,14.50
2018-07-03T03:29:47.248Z,14.60
2018-07-03T03:32:16.417Z,14.60
2018-07-03T03:34:45.593Z,14.60
2018-07-03T03:37:14.737Z,14.60
2018-07-03T03:39:43.968Z,14.70
2018-07-03T03:42:13.134Z,14.80
2018-07-03T03:44:42.312Z,14.90
2018-07-03T03:47:11.476Z,15.00
2018-07-03T03:49:40.661Z,15.00
2018-07-03T03:52:09.748Z,15.00
2018-07-03T03:54:39.009Z,15.10
2018-07-03T03:57:08.175Z,15.20
2018-07-03T03:59:37.355Z,15.20
2018-07-03T04:02:06.534Z,15.30
2018-07-03T04:04:35.746Z,15.40
2018-07-03T04:07:04.921Z,15.50
2018-07-03T04:09:34.127Z,15.50
2018-07-03T04:12:03.290Z,15.60
2018-07-03T04:14:32.458Z,15.80
2018-07-03T04:17:01.682Z,15.90
2018-07-03T04:19:30.902Z,16.00
2018-07-03T04:21:59.990Z,16.10
2018-07-03T04:24:29.149Z,16.20
2018-07-03T04:26:58.298Z,16.30
2018-07-03T04:29:27.438Z,16.30
2018-07-03T04:31:56.657Z,16.50
2018-07-03T04:34:25.887Z,16.60
2018-07-03T04:36:54.989Z,16.70
2018-07-03T04:39:24.097Z,16.80
2018-07-03T04:41:53.331Z,16.90
2018-07-03T04:44:22.531Z,17.00
2018-07-03T04:46:51.768Z,17.10
2018-07-03T04:49:20.916Z,17.20
2018-07-03T04:51:50.087Z,17.30
2018-07-03T04:54:19.306Z,17.40
2018-07-03T04:56:48.455Z,17.50
2018-07-03T04:59:17.615Z,17.60
2018-07-03T05:01:46.802Z,17.70
2018-07-03T05:04:15.983Z,17.80
2018-07-03T05:06:45.210Z,17.90
2018-07-03T05:09:14.527Z,18.10
2018-07-03T05:11:43.662Z,18.20
2018-07-03T05:14:12.785Z,18.20
2018-07-03T05:16:41.946Z,18.30
2018-07-03T05:19:11.037Z,18.40
2018-07-03T05:21:40.233Z,18.60
2018-07-03T05:26:38.295Z,18.80
2018-07-03T05:29:07.437Z,18.80
2018-07-03T05:31:36.681Z,18.90
2018-07-03T05:34:06.073Z,19.00
2018-07-03T05:36:35.214Z,19.10
2018-07-03T05:39:07.550Z,19.20
2018-07-03T05:41:37.138Z,19.30
2018-07-03T05:44:07.181Z,19.30
2018-07-03T05:46:36.673Z,19.40
2018-07-03T05:49:05.925Z,19.50
2018-07-03T05:51:35.084Z,19.70
2018-07-03T05:54:04.229Z,19.70
2018-07-03T05:56:33.401Z,19.80
2018-07-03T05:59:02.494Z,19.90
2018-07-03T06:01:31.605Z,20.00
2018-07-03T06:04:00.752Z,20.00
2018-07-03T06:06:29.983Z,20.10
2018-07-03T06:08:59.104Z,20.20
2018-07-03T06:11:28.260Z,20.20
2018-07-03T06:13:57.376Z,20.30
2018-07-03T06:16:26.596Z,20.30
2018-07-03T06:18:55.738Z,20.40
2018-07-03T06:21:24.901Z,20.50
2018-07-03T06:23:54.097Z,20.60
2018-07-03T06:26:23.266Z,20.70
2018-07-03T06:28:52.815Z,20.80
2018-07-03T06:31:22.022Z,20.80
2018-07-03T06:33:51.142Z,20.90
2018-07-03T06:36:20.291Z,21.00
2018-07-03T06:38:49.420Z,21.10
2018-07-03T06:41:18.638Z,21.10
2018-07-03T06:43:47.748Z,21.20
2018-07-03T06:46:16.998Z,21.30
2018-07-03T06:48:45.968Z,21.30
2018-07-03T06:51:15.298Z,21.40
2018-07-03T06:53:44.293Z,21.50
2018-07-03T06:56:13.404Z,21.60
2018-07-03T06:58:42.502Z,21.70
2018-07-03T07:01:11.678Z,21.90
2018-07-03T07:03:40.890Z,21.90
2018-07-03T07:06:10.119Z,22.10
2018-07-03T07:08:39.314Z,22.10
2018-07-03T07:11:08.423Z,22.10
2018-07-03T07:13:37.584Z,22.30
2018-07-03T07:16:06.762Z,22.30
2018-07-03T07:18:35.909Z,22.40
2018-07-03T07:21:05.053Z,22.50
2018-07-03T07:23:34.130Z,22.70
2018-07-03T07:26:03.313Z,22.70
2018-07-03T07:28:32.423Z,22.80
2018-07-03T07:31:01.845Z,22.90
2018-07-03T07:33:30.944Z,23.00
2018-07-03T07:36:00.092Z,23.10
2018-07-03T07:38:29.294Z,23.10
2018-07-03T07:40:58.409Z,23.30
2018-07-03T07:43:27.548Z,23.30
2018-07-03T07:45:56.694Z,23.40
2018-07-03T07:48:25.905Z,23.50
2018-07-03T07:50:55.039Z,23.60
2018-07-03T07:53:24.216Z,23.70
2018-07-03T07:55:53.317Z,23.80
2018-07-03T07:58:22.437Z,23.90
2018-07-03T08:00:51.586Z,24.00
2018-07-03T08:03:20.730Z,24.10
2018-07-03T08:05:49.832Z,24.10
2018-07-03T08:08:18.974Z,24.10
2018-07-03T08:10:48.178Z,24.00
2018-07-03T08:13:17.387Z,24.10
2018-07-03T08:15:46.558Z,24.00
2018-07-03T08:18:15.700Z,24.00
2018-07-03T08:20:44.811Z,24.00
2018-07-03T08:23:13.946Z,24.00
2018-07-03T08:25:43.070Z,23.90
2018-07-03T08:28:12.334Z,24.00
2018-07-03T08:30:41.582Z,24.00
2018-07-03T08:33:13.746Z,24.10
2018-07-03T08:35:43.000Z,24.20
2018-07-03T08:38:12.257Z,24.30
2018-07-03T08:40:41.698Z,24.40
2018-07-03T08:43:10.825Z,24.50
2018-07-03T08:45:40.025Z,24.70
2018-07-03T08:48:09.146Z,24.50
2018-07-03T08:50:38.303Z,24.50
2018-07-03T08:53:07.482Z,24.50
2018-07-03T08:55:36.679Z,24.30
2018-07-03T08:58:05.805Z,24.30
2018-07-03T09:00:34.984Z,24.30
2018-07-03T09:03:04.135Z,24.20
2018-07-03T09:05:33.291Z,24.30
2018-07-03T09:08:02.455Z,24.30
2018-07-03T09:10:31.626Z,24.30
2018-07-03T09:13:00.790Z,24.20
2018-07-03T09:15:29.913Z,24.40
2018-07-03T09:17:59.073Z,24.50
2018-07-03T09:20:28.278Z,24.70
2018-07-03T09:22:57.364Z,24.70
2018-07-03T09:25:26.539Z,24.80
2018-07-03T09:27:55.710Z,25.00
2018-07-03T09:30:25.011Z,25.00
2018-07-03T09:32:54.132Z,25.10
2018-07-03T09:37:52.169Z,25.20
2018-07-03T09:40:21.290Z,25.10
2018-07-03T09:42:50.443Z,25.20
2018-07-03T09:45:19.619Z,25.10
2018-07-03T09:47:48.719Z,25.20
2018-07-03T09:50:17.855Z,25.40
2018-07-03T09:52:47.051Z,25.50
2018-07-03T09:55:16.148Z,25.60
2018-07-03T09:57:45.330Z,25.50
2018-07-03T10:00:14.406Z,25.60
2018-07-03T10:02:43.506Z,25.70
2018-07-03T10:05:12.671Z,25.60
2018-07-03T10:07:41.839Z,25.50
2018-07-03T10:10:10.947Z,25.40
2018-07-03T10:12:40.140Z,25.30
2018-07-03T10:15:09.203Z,25.50
2018-07-03T10:17:38.397Z,25.60
2018-07-03T10:20:07.549Z,25.60
2018-07-03T10:25:05.561Z,25.80
2018-07-03T10:27:34.751Z,25.80
2018-07-03T10:30:03.938Z,26.00
2018-07-03T10:32:33.118Z,26.20
2018-07-03T10:35:02.253Z,26.40
2018-07-03T10:37:31.394Z,26.70
2018-07-03T10:40:00.532Z,26.90
2018-07-03T10:42:29.617Z,27.00
2018-07-03T10:44:58.777Z,27.20
2018-07-03T10:47:27.932Z,27.60
2018-07-03T10:49:57.065Z,27.90
2018-07-03T10:52:26.258Z,28.40
2018-07-03T10:54:55.340Z,28.60
2018-07-03T10:57:24.480Z,28.80
2018-07-03T10:59:53.632Z,29.00
2018-07-03T11:02:22.690Z,29.30
2018-07-03T11:04:51.906Z,29.80
2018-07-03T11:07:22.166Z,30.10
2018-07-03T11:09:51.302Z,30.10
2018-07-03T11:12:20.426Z,30.10
2018-07-03T11:14:49.546Z,30.30
2018-07-03T11:17:18.756Z,30.40
2018-07-03T11:19:47.968Z,30.80
2018-07-03T11:22:17.006Z,31.10
2018-07-03T11:24:46.144Z,31.60
2018-07-03T11:27:15.313Z,31.60
2018-07-03T11:29:44.452Z,31.90
2018-07-03T11:32:13.707Z,33.00
2018-07-03T11:34:42.867Z,32.90
2018-07-03T11:37:12.023Z,33.20
2018-07-03T11:39:41.156Z,33.80
2018-07-03T11:42:10.281Z,34.20
2018-07-03T11:44:39.435Z,35.30
2018-07-03T11:47:08.561Z,35.20
2018-07-03T11:49:37.765Z,37.00
2018-07-03T11:52:06.925Z,38.40
2018-07-03T11:54:36.205Z,39.10
2018-07-03T11:57:05.296Z,39.50
2018-07-03T11:59:34.419Z,40.00
2018-07-03T12:02:03.554Z,40.80
2018-07-03T12:04:32.762Z,42.80
2018-07-03T12:07:01.959Z,44.40
2018-07-03T12:09:31.123Z,45.00
2018-07-03T12:12:00.259Z,45.40
2018-07-03T12:14:29.381Z,45.10
2018-07-03T12:19:33.922Z,46.40
2018-07-03T12:22:02.970Z,47.60
2018-07-03T12:24:32.150Z,47.70
2018-07-03T12:27:01.283Z,48.10
2018-07-03T12:29:30.422Z,48.70
2018-07-03T12:31:59.603Z,49.10
2018-07-03T12:34:28.745Z,49.60
2018-07-03T12:36:57.862Z,50.60
2018-07-03T12:39:26.959Z,50.60
2018-07-03T12:41:56.078Z,50.70
2018-07-03T12:44:25.232Z,50.90
2018-07-03T12:46:54.361Z,51.20
2018-07-03T12:49:23.455Z,52.20
2018-07-03T12:51:52.572Z,51.00
2018-07-03T12:54:21.703Z,52.80
2018-07-03T12:56:50.828Z,53.30
2018-07-03T12:59:19.981Z,54.30
2018-07-03T13:01:49.145Z,54.20
2018-07-03T13:04:18.288Z,53.90
2018-07-03T13:06:47.472Z,53.80
2018-07-03T13:09:16.662Z,52.70
2018-07-03T13:11:45.883Z,51.10
2018-07-03T13:14:15.070Z,51.30
2018-07-03T13:16:44.200Z,49.80
2018-07-03T13:19:13.334Z,48.70
2018-07-03T13:21:42.555Z,48.70
2018-07-03T13:24:11.928Z,49.30
2018-07-03T13:26:41.081Z,48.70
2018-07-03T13:29:10.237Z,48.60
2018-07-03T13:31:39.447Z,48.70
2018-07-03T13:34:08.502Z,50.00
2018-07-03T13:36:37.602Z,49.50
2018-07-03T13:39:09.746Z,50.60
2018-07-03T13:41:38.937Z,52.10
2018-07-03T13:44:08.105Z,51.00
2018-07-03T13:46:37.247Z,51.10
2018-07-03T13:49:06.418Z,52.70
2018-07-03T13:51:35.610Z,51.90
2018-07-03T13:54:04.748Z,52.60
2018-07-03T13:56:33.897Z,52.60
2018-07-03T13:59:03.025Z,53.00
2018-07-03T14:01:32.163Z,53.90
2018-07-03T14:04:01.276Z,55.00
2018-07-03T14:06:30.400Z,54.90
2018-07-03T14:08:59.559Z,56.00
2018-07-03T14:11:28.731Z,56.00
2018-07-03T14:13:57.925Z,55.20
2018-07-03T14:16:27.025Z,56.00
2018-07-03T14:18:56.154Z,56.30
2018-07-03T14:21:25.334Z,55.80
2018-07-03T14:23:54.497Z,55.80
2018-07-03T14:26:23.622Z,55.80
2018-07-03T14:28:52.848Z,56.20
2018-07-03T14:31:22.031Z,55.60
2018-07-03T14:33:51.170Z,55.50
2018-07-03T14:36:20.311Z,54.30
2018-07-03T14:38:49.518Z,54.60
2018-07-03T14:41:18.681Z,51.70
2018-07-03T14:43:47.851Z,54.00
2018-07-03T14:46:16.988Z,55.30
2018-07-03T14:48:46.109Z,55.50
2018-07-03T14:51:15.312Z,55.70
2018-07-03T14:53:44.462Z,56.30
2018-07-03T14:56:13.776Z,57.20
2018-07-03T14:58:42.945Z,57.40
2018-07-03T15:01:12.167Z,56.90
2018-07-03T15:03:41.349Z,57.60
2018-07-03T15:06:10.466Z,58.00
2018-07-03T15:08:39.599Z,56.30
2018-07-03T15:11:08.780Z,53.90
2018-07-03T15:13:37.960Z,53.00
2018-07-03T15:16:07.166Z,53.10
2018-07-03T15:18:41.697Z,51.60
2018-07-03T15:21:10.863Z,52.00
2018-07-03T15:23:40.057Z,50.30
2018-07-03T15:26:09.364Z,51.00
2018-07-03T15:28:38.694Z,51.30
2018-07-03T15:31:07.892Z,51.20
2018-07-03T15:33:37.319Z,52.30
2018-07-03T15:36:06.417Z,53.30
2018-07-03T15:38:37.537Z,54.00
2018-07-03T15:41:06.872Z,54.50
2018-07-03T15:43:36.055Z,54.40
2018-07-03T15:46:05.246Z,54.70
2018-07-03T15:48:34.441Z,55.00
2018-07-03T15:51:03.594Z,55.20
2018-07-03T15:53:32.736Z,54.70
2018-07-03T15:56:01.911Z,55.30
2018-07-03T15:58:31.066Z,55.30
2018-07-03T16:01:00.206Z,55.80
2018-07-03T16:05:57.457Z,55.60
2018-07-03T16:09:37.357Z,55.80
2018-07-03T16:12:06.471Z,56.20
2018-07-03T16:14:35.600Z,55.90
2018-07-03T16:17:04.765Z,56.00
2018-07-03T16:20:41.182Z,54.50
2018-07-03T16:23:10.653Z,54.80
2018-07-03T16:25:40.219Z,52.10
2018-07-03T16:28:09.404Z,52.70
2018-07-03T16:30:38.532Z,52.30
2018-07-03T16:33:07.764Z,53.00
2018-07-03T16:35:36.865Z,53.30
2018-07-03T16:38:06.107Z,52.00
2018-07-03T16:40:35.256Z,51.50
2018-07-03T16:43:04.375Z,51.70
2018-07-03T16:45:33.519Z,51.20
2018-07-03T16:48:02.690Z,50.40
2018-07-03T16:50:31.816Z,49.50
2018-07-03T16:53:00.960Z,48.70
2018-07-03T16:55:33.151Z,47.30
2018-07-03T16:58:02.269Z,47.40
2018-07-03T17:00:31.352Z,48.30
2018-07-03T17:03:00.487Z,48.90
2018-07-03T17:05:29.653Z,48.70
2018-07-03T17:07:58.883Z,49.00
2018-07-03T17:10:28.041Z,48.60
2018-07-03T17:12:57.142Z,47.30
2018-07-03T17:15:26.239Z,46.70
2018-07-03T17:17:55.435Z,46.50
2018-07-03T17:20:24.549Z,46.50
2018-07-03T17:22:53.694Z,46.70
2018-07-03T17:25:22.789Z,46.10
2018-07-03T17:27:51.934Z,46.10
2018-07-03T17:30:21.054Z,46.20
2018-07-03T17:32:50.227Z,45.70
2018-07-03T17:35:19.397Z,45.70
2018-07-03T17:37:48.500Z,45.70
2018-07-03T17:40:34.770Z,45.40
2018-07-03T17:43:32.996Z,44.70
2018-07-03T17:46:08.856Z,44.80
2018-07-03T17:48:38.044Z,44.60
2018-07-03T17:51:07.200Z,44.60
2018-07-03T17:53:36.361Z,43.70
2018-07-03T17:56:05.606Z,43.50
2018-07-03T17:58:34.746Z,42.00
2018-07-03T18:01:10.182Z,40.30
2018-07-03T18:03:39.364Z,38.90
2018-07-03T18:06:08.540Z,37.60
2018-07-03T18:08:37.639Z,36.40
2018-07-03T18:11:06.827Z,35.00
2018-07-03T18:13:36.178Z,34.20
2018-07-03T18:16:05.453Z,33.70
2018-07-03T18:18:34.569Z,33.10
2018-07-03T18:21:03.743Z,32.50
2018-07-03T18:23:32.892Z,31.90
2018-07-03T18:26:01.999Z,31.20
2018-07-03T18:28:31.076Z,30.50
2018-07-03T18:31:00.269Z,30.20
2018-07-03T18:33:29.481Z,29.90
2018-07-03T18:35:58.739Z,29.50
2018-07-03T18:38:27.922Z,29.10
2018-07-03T18:40:57.130Z,28.80
2018-07-03T18:43:26.253Z,28.50
2018-07-03T18:45:55.461Z,28.20
2018-07-03T18:50:53.464Z,27.60
2018-07-03T18:53:22.605Z,27.30
2018-07-03T18:55:51.788Z,27.10
2018-07-03T18:58:20.942Z,27.00
2018-07-03T19:00:50.082Z,26.90
2018-07-03T19:03:19.267Z,26.60
2018-07-03T19:05:48.490Z,26.50
2018-07-03T19:08:17.666Z,26.40
2018-07-03T19:10:46.890Z,26.10
2018-07-03T19:13:16.008Z,26.00
2018-07-03T19:15:45.248Z,25.80
2018-07-03T19:18:14.470Z,25.70
2018-07-03T19:20:43.661Z,25.50
2018-07-03T19:23:12.930Z,25.40
2018-07-03T19:25:42.086Z,25.30
2018-07-03T19:28:11.367Z,25.10
2018-07-03T19:33:10.081Z,24.90
2018-07-03T19:35:39.313Z,24.70
2018-07-03T19:38:08.511Z,24.60
2018-07-03T19:40:37.696Z,24.50
2018-07-03T19:43:23.763Z,24.40
2018-07-03T19:45:53.807Z,24.20
2018-07-03T19:48:23.040Z,24.10
2018-07-03T19:50:52.780Z,24.00
2018-07-03T19:53:21.960Z,23.80
2018-07-03T19:55:52.618Z,23.70
2018-07-03T19:58:22.339Z,23.70
2018-07-03T20:00:52.647Z,23.50
2018-07-03T20:03:21.889Z,23.40
2018-07-03T20:05:51.125Z,23.30
2018-07-03T20:08:20.354Z,23.20
2018-07-03T20:10:51.590Z,23.10
2018-07-03T20:13:20.828Z,23.00
2018-07-03T20:15:50.076Z,23.00
2018-07-03T20:18:19.268Z,22.90
2018-07-03T20:20:48.540Z,22.80
2018-07-03T20:23:17.751Z,22.70
2018-07-03T20:25:46.949Z,22.70
2018-07-03T20:28:16.160Z,22.60
2018-07-03T20:30:45.335Z,22.50
2018-07-03T20:33:14.597Z,22.60
2018-07-03T20:35:43.818Z,22.50
2018-07-03T20:38:13.012Z,22.40
2018-07-03T20:41:06.525Z,22.30
2018-07-03T20:43:37.190Z,22.30
2018-07-03T20:46:07.455Z,22.30
2018-07-03T20:48:36.689Z,22.20
2018-07-03T20:51:05.839Z,22.20
2018-07-03T20:53:34.983Z,22.10
2018-07-03T20:56:04.218Z,22.10
2018-07-03T20:58:33.383Z,22.00
2018-07-03T21:01:02.590Z,21.90
2018-07-03T21:03:31.728Z,21.80
2018-07-03T21:06:00.943Z,21.80
2018-07-03T21:08:30.075Z,21.80
2018-07-03T21:10:59.243Z,21.70
2018-07-03T21:13:28.331Z,21.70
2018-07-03T21:15:57.477Z,21.60
2018-07-03T21:18:26.571Z,21.60
2018-07-03T21:20:55.739Z,21.50
2018-07-03T21:23:24.896Z,21.50
2018-07-03T21:25:54.067Z,21.60
2018-07-03T21:28:23.178Z,21.50
2018-07-03T21:30:52.548Z,21.50
2018-07-03T21:33:21.636Z,21.50
2018-07-03T21:35:50.731Z,21.40
2018-07-03T21:38:19.910Z,21.40
2018-07-03T21:40:49.121Z,21.40
2018-07-03T21:43:18.204Z,21.40
2018-07-03T21:45:47.312Z,21.30
2018-07-03T21:48:16.641Z,21.20
2018-07-03T21:50:45.784Z,21.20
2018-07-03T21:53:14.926Z,21.10
2018-07-03T21:55:44.123Z,21.00
2018-07-03T21:58:13.218Z,21.00
2018-07-03T22:00:42.649Z,21.00
2018-07-03T22:03:12.506Z,20.90
2018-07-03T22:05:42.062Z,20.90
2018-07-03T22:08:11.238Z,20.80
2018-07-03T22:10:40.394Z,20.80
2018-07-03T22:13:09.563Z,20.70
2018-07-03T22:15:38.742Z,20.70
2018-07-03T22:18:07.931Z,20.60
2018-07-03T22:20:37.082Z,20.60
2018-07-03T22:23:06.228Z,20.50
2018-07-03T22:25:35.389Z,20.40
2018-07-03T22:28:04.550Z,20.40
2018-07-03T22:30:33.719Z,20.30
2018-07-03T22:33:02.899Z,20.30
2018-07-03T22:35:32.051Z,20.20
2018-07-03T22:38:01.198Z,20.10
2018-07-03T22:40:30.304Z,20.10
2018-07-03T22:42:59.466Z,20.10
2018-07-03T22:45:28.636Z,20.00
2018-07-03T22:47:57.782Z,20.00
2018-07-03T22:50:26.959Z,19.90
2018-07-03T22:52:56.143Z,19.80
2018-07-03T22:55:25.258Z,19.80
2018-07-03T22:57:54.341Z,19.80
2018-07-03T23:00:23.431Z,19.80
2018-07-03T23:02:52.576Z,19.70
2018-07-03T23:05:21.776Z,19.70
2018-07-03T23:07:50.938Z,19.60
2018-07-03T23:10:20.431Z,19.60
2018-07-03T23:12:49.578Z,19.50
2018-07-03T23:15:18.685Z,19.50
2018-07-03T23:17:47.856Z,19.50
2018-07-03T23:20:17.025Z,19.40
2018-07-03T23:22:46.221Z,19.40
2018-07-03T23:25:15.334Z,19.30
2018-07-03T23:27:44.498Z,19.30
2018-07-03T23:30:13.660Z,19.20
2018-07-03T23:32:42.801Z,19.20
2018-07-03T23:35:11.917Z,19.20
2018-07-03T23:37:41.066Z,19.10
2018-07-03T23:40:10.259Z,19.10
2018-07-03T23:42:39.429Z,19.00
2018-07-03T23:47:54.573Z,19.00
2018-07-03T23:50:40.779Z,18.90
2018-07-03T23:53:27.137Z,18.90
2018-07-03T23:56:13.464Z,18.80
2018-07-03T23:58:59.855Z,18.70
